Vincennes, Indiana
Current Conditions -  °F | °C
As of 1:28 PM on Saturday 25 Oct 2014 (Local Time) from KLWV Reporting Station
Haze Haze  
Wind Chill: 76°   Ceiling: Unl
Heat Index: 76°   Visibility: 2.5mi
Dew Point: 55°   Wind: 8mph
Humidity: 48%   Direction: 280°W
Pressure: 29.98"   Gusts: NA
Location:  38.68°N, 87.53°W
Report Text: KLWV 251828Z AUTO 28007KT 2 1/2SM HZ CLR 24/13 A2998 RMK AO2 T02440128
Loading
Personal Weather Stations






























Interactive Weather Map
Tropical Storm Tracking
New forecast layout! Learn more

10-Day Weather Forecast

Advertisements
Track Severe Weather on mobile